This is the latest recevied weather packets stored in our database for station/object AE5TC. If no packets are shown the sender has not sent any weather packets the latest 10 day(s).
| Time | Temp. | Humidity | Pressure | Rain* | Wind** | Luminosity | Snow |
|---|---|---|---|---|---|---|---|
| 1777582139 | 25° C | 85% | 1009.5 hPa | 0 mm | - | 131 W/m² | - |
| 1777581838 | 25° C | 85% | 1009.4 hPa | 0 mm | - | 131 W/m² | - |
| 1777581536 | 24.44° C | 85% | 1009.3 hPa | 0 mm | - | 127 W/m² | - |
| 1777581233 | 25° C | 84% | 1009.7 hPa | 0 mm | - | 131 W/m² | - |
| 1777580927 | 25° C | 85% | 1009.6 hPa | 0 mm | - | 135 W/m² | - |
| 1777580323 | 25° C | 85% | 1009.6 hPa | 0 mm | - | 114 W/m² | - |
| 1777579409 | 25.56° C | 83% | 1010.2 hPa | 0 mm | - | 103 W/m² | - |
| 1777576974 | 27.22° C | 77% | 1010.4 hPa | 0 mm | - | 217 W/m² | - |
| 1777576670 | 27.78° C | 74% | 1010.4 hPa | 0 mm | - | 212 W/m² | - |
| 1777572114 | 28.33° C | 71% | 1010.7 hPa | 0 mm | - | 338 W/m² | - |
| 1777571808 | 28.89° C | 70% | 1010.6 hPa | 0 mm | - | 330 W/m² | - |
| 1777570286 | 29.44° C | 66% | 1010.9 hPa | 0 mm | - | 299 W/m² | - |
| 1777569372 | 28.89° C | 66% | 1011 hPa | 0 mm | - | 676 W/m² | - |
| 1777567553 | 28.89° C | 66% | 1011.7 hPa | 0 mm | - | 819 W/m² | - |
| 1777566949 | 29.44° C | 69% | 1011.6 hPa | 0 mm | - | 815 W/m² | - |
| 1777566344 | 28.89° C | 70% | 1011.6 hPa | 0 mm | - | 807 W/m² | - |
| 1777564820 | 28.89° C | 75% | 1011.8 hPa | 0 mm | - | 749 W/m² | - |
| 1777564515 | 28.89° C | 75% | 1011.8 hPa | 0 mm | - | 714 W/m² | - |
| 1777564210 | 28.33° C | 76% | 1011.8 hPa | 0 mm | - | 714 W/m² | - |
| 1777563302 | 27.78° C | 80% | 1011.7 hPa | 0 mm | - | 669 W/m² | - |
| 1777562999 | 27.78° C | 81% | 1011.5 hPa | 0 mm | - | 662 W/m² | - |
| 1777562694 | 28.33° C | 80% | 1011.3 hPa | 0 mm | - | 655 W/m² | - |
| 1777561173 | 26.67° C | 88% | 1011.2 hPa | 0 mm | - | 687 W/m² | - |
| 1777559049 | 26.67° C | 89% | 1011 hPa | 0 mm | - | 585 W/m² | - |
| 1777558744 | 26.11° C | 91% | 1011.2 hPa | 0 mm | - | 385 W/m² | - |
* Rain latest hour (hover to see other rain measurements)
** Current wind speed in m/s (hover to see current wind gust speed)